sensor_id;sensor_type;location;lat;lon;timestamp;temperature;humidity
20483;DHT22;10400;53.198;6.592;2022-08-25T00:04:17;21.70;99.90
20483;DHT22;10400;53.198;6.592;2022-08-25T00:06:43;21.70;99.90
20483;DHT22;10400;53.198;6.592;2022-08-25T00:09:11;21.70;99.90
20483;DHT22;10400;53.198;6.592;2022-08-25T00:11:39;21.60;99.90
20483;DHT22;10400;53.198;6.592;2022-08-25T00:14:08;21.70;99.90
20483;DHT22;10400;53.198;6.592;2022-08-25T00:16:34;21.60;99.90
20483;DHT22;10400;53.198;6.592;2022-08-25T00:19:06;21.60;99.90
20483;DHT22;10400;53.198;6.592;2022-08-25T00:21:32;21.60;99.90
20483;DHT22;10400;53.198;6.592;2022-08-25T00:23:59;21.60;99.90
20483;DHT22;10400;53.198;6.592;2022-08-25T00:26:26;21.60;99.90
20483;DHT22;10400;53.198;6.592;2022-08-25T00:28:52;21.60;99.90
20483;DHT22;10400;53.198;6.592;2022-08-25T00:31:19;21.60;99.90
20483;DHT22;10400;53.198;6.592;2022-08-25T00:33:47;21.50;99.90
20483;DHT22;10400;53.198;6.592;2022-08-25T00:36:13;21.50;99.90
20483;DHT22;10400;53.198;6.592;2022-08-25T00:38:41;21.50;99.90
20483;DHT22;10400;53.198;6.592;2022-08-25T00:41:08;21.50;99.90
20483;DHT22;10400;53.198;6.592;2022-08-25T00:43:44;21.50;99.90
20483;DHT22;10400;53.198;6.592;2022-08-25T00:46:13;21.50;99.90
20483;DHT22;10400;53.198;6.592;2022-08-25T00:48:41;21.50;99.90
20483;DHT22;10400;53.198;6.592;2022-08-25T00:51:09;21.40;99.90
20483;DHT22;10400;53.198;6.592;2022-08-25T00:53:37;21.40;99.90
20483;DHT22;10400;53.198;6.592;2022-08-25T00:56:03;21.40;99.90
20483;DHT22;10400;53.198;6.592;2022-08-25T00:58:31;21.40;99.90
20483;DHT22;10400;53.198;6.592;2022-08-25T01:00:59;21.40;99.90
20483;DHT22;10400;53.198;6.592;2022-08-25T01:03:28;21.30;99.90
20483;DHT22;10400;53.198;6.592;2022-08-25T01:05:54;21.30;99.90
20483;DHT22;10400;53.198;6.592;2022-08-25T01:08:25;21.30;99.90
20483;DHT22;10400;53.198;6.592;2022-08-25T01:10:53;21.30;99.90
20483;DHT22;10400;53.198;6.592;2022-08-25T01:13:29;21.30;99.90
20483;DHT22;10400;53.198;6.592;2022-08-25T01:15:56;21.20;99.90
20483;DHT22;10400;53.198;6.592;2022-08-25T01:18:24;21.10;99.90
20483;DHT22;10400;53.198;6.592;2022-08-25T01:20:51;21.10;99.90
20483;DHT22;10400;53.198;6.592;2022-08-25T01:23:18;21.10;99.90
20483;DHT22;10400;53.198;6.592;2022-08-25T01:28:29;21.10;99.90
20483;DHT22;10400;53.198;6.592;2022-08-25T01:30:55;21.10;99.90
20483;DHT22;10400;53.198;6.592;2022-08-25T01:33:20;21.10;99.90
20483;DHT22;10400;53.198;6.592;2022-08-25T01:35:46;21.10;99.90
20483;DHT22;10400;53.198;6.592;2022-08-25T01:38:12;21.00;99.90
20483;DHT22;10400;53.198;6.592;2022-08-25T01:40:39;21.00;99.90
20483;DHT22;10400;53.198;6.592;2022-08-25T01:45:39;21.00;99.90
20483;DHT22;10400;53.198;6.592;2022-08-25T01:48:06;21.00;99.90
20483;DHT22;10400;53.198;6.592;2022-08-25T01:50:32;21.00;99.90
20483;DHT22;10400;53.198;6.592;2022-08-25T01:55:42;20.90;99.90
20483;DHT22;10400;53.198;6.592;2022-08-25T01:58:34;20.80;99.90
20483;DHT22;10400;53.198;6.592;2022-08-25T02:01:03;20.80;99.90
20483;DHT22;10400;53.198;6.592;2022-08-25T02:03:29;20.80;99.90
20483;DHT22;10400;53.198;6.592;2022-08-25T02:05:56;20.70;99.90
20483;DHT22;10400;53.198;6.592;2022-08-25T02:08:23;20.70;99.90
20483;DHT22;10400;53.198;6.592;2022-08-25T02:10:50;20.70;99.90
20483;DHT22;10400;53.198;6.592;2022-08-25T02:13:16;20.60;99.90
20483;DHT22;10400;53.198;6.592;2022-08-25T02:15:45;20.60;99.90
20483;DHT22;10400;53.198;6.592;2022-08-25T02:18:11;20.60;99.90
20483;DHT22;10400;53.198;6.592;2022-08-25T02:20:37;20.50;99.90
20483;DHT22;10400;53.198;6.592;2022-08-25T02:23:04;20.50;99.90
20483;DHT22;10400;53.198;6.592;2022-08-25T02:25:30;20.40;99.90
20483;DHT22;10400;53.198;6.592;2022-08-25T02:27:56;20.40;99.90
20483;DHT22;10400;53.198;6.592;2022-08-25T02:30:22;20.40;99.90
20483;DHT22;10400;53.198;6.592;2022-08-25T02:32:48;20.40;99.90
20483;DHT22;10400;53.198;6.592;2022-08-25T02:35:14;20.40;99.90
20483;DHT22;10400;53.198;6.592;2022-08-25T02:37:40;20.30;99.90
20483;DHT22;10400;53.198;6.592;2022-08-25T02:40:06;20.30;99.90
20483;DHT22;10400;53.198;6.592;2022-08-25T02:42:32;20.40;99.90
20483;DHT22;10400;53.198;6.592;2022-08-25T02:44:58;20.40;99.90
20483;DHT22;10400;53.198;6.592;2022-08-25T02:47:24;20.40;99.90
20483;DHT22;10400;53.198;6.592;2022-08-25T02:49:50;20.30;99.90
20483;DHT22;10400;53.198;6.592;2022-08-25T02:52:15;20.30;99.90
20483;DHT22;10400;53.198;6.592;2022-08-25T02:54:41;20.30;99.90
20483;DHT22;10400;53.198;6.592;2022-08-25T02:57:07;20.30;99.90
20483;DHT22;10400;53.198;6.592;2022-08-25T02:59:34;20.20;99.90
20483;DHT22;10400;53.198;6.592;2022-08-25T03:02:00;20.30;99.90
20483;DHT22;10400;53.198;6.592;2022-08-25T03:04:26;20.20;99.90
20483;DHT22;10400;53.198;6.592;2022-08-25T03:06:51;20.20;99.90
20483;DHT22;10400;53.198;6.592;2022-08-25T03:09:17;20.20;99.90
20483;DHT22;10400;53.198;6.592;2022-08-25T03:11:43;20.10;99.90
20483;DHT22;10400;53.198;6.592;2022-08-25T03:14:08;20.10;99.90
20483;DHT22;10400;53.198;6.592;2022-08-25T03:16:35;20.00;99.90
20483;DHT22;10400;53.198;6.592;2022-08-25T03:19:01;20.00;99.90
20483;DHT22;10400;53.198;6.592;2022-08-25T03:21:28;20.00;99.90
20483;DHT22;10400;53.198;6.592;2022-08-25T03:23:54;19.90;99.90
20483;DHT22;10400;53.198;6.592;2022-08-25T03:26:20;19.90;99.90
20483;DHT22;10400;53.198;6.592;2022-08-25T03:29:05;19.90;99.90
20483;DHT22;10400;53.198;6.592;2022-08-25T03:31:32;19.90;99.90
20483;DHT22;10400;53.198;6.592;2022-08-25T03:33:58;19.80;99.90
20483;DHT22;10400;53.198;6.592;2022-08-25T03:36:25;19.80;99.90
20483;DHT22;10400;53.198;6.592;2022-08-25T03:38:52;19.80;99.90
20483;DHT22;10400;53.198;6.592;2022-08-25T03:41:22;19.80;99.90
20483;DHT22;10400;53.198;6.592;2022-08-25T03:43:49;19.80;99.90
20483;DHT22;10400;53.198;6.592;2022-08-25T03:46:20;19.80;99.90
20483;DHT22;10400;53.198;6.592;2022-08-25T03:48:47;19.80;99.90
20483;DHT22;10400;53.198;6.592;2022-08-25T03:51:22;19.70;99.90
20483;DHT22;10400;53.198;6.592;2022-08-25T03:53:48;19.70;99.90
20483;DHT22;10400;53.198;6.592;2022-08-25T03:56:14;19.70;99.90
20483;DHT22;10400;53.198;6.592;2022-08-25T03:58:39;19.60;99.90
20483;DHT22;10400;53.198;6.592;2022-08-25T04:01:05;19.60;99.90
20483;DHT22;10400;53.198;6.592;2022-08-25T04:03:31;19.60;99.90
20483;DHT22;10400;53.198;6.592;2022-08-25T04:06:00;19.60;99.90
20483;DHT22;10400;53.198;6.592;2022-08-25T04:08:26;19.60;99.90
20483;DHT22;10400;53.198;6.592;2022-08-25T04:10:52;19.50;99.90
20483;DHT22;10400;53.198;6.592;2022-08-25T04:13:19;19.50;99.90
20483;DHT22;10400;53.198;6.592;2022-08-25T04:15:45;19.50;99.90
20483;DHT22;10400;53.198;6.592;2022-08-25T04:18:11;19.50;99.90
20483;DHT22;10400;53.198;6.592;2022-08-25T04:20:38;19.50;99.90
20483;DHT22;10400;53.198;6.592;2022-08-25T04:23:04;19.40;99.90
20483;DHT22;10400;53.198;6.592;2022-08-25T04:25:30;19.40;99.90
20483;DHT22;10400;53.198;6.592;2022-08-25T04:27:55;19.40;99.90
20483;DHT22;10400;53.198;6.592;2022-08-25T04:30:22;19.30;99.90
20483;DHT22;10400;53.198;6.592;2022-08-25T04:32:48;19.30;99.90
20483;DHT22;10400;53.198;6.592;2022-08-25T04:35:14;19.30;99.90
20483;DHT22;10400;53.198;6.592;2022-08-25T04:37:40;19.30;99.90
20483;DHT22;10400;53.198;6.592;2022-08-25T04:40:06;19.30;99.90
20483;DHT22;10400;53.198;6.592;2022-08-25T04:42:33;19.30;99.90
20483;DHT22;10400;53.198;6.592;2022-08-25T04:44:58;19.30;99.90
20483;DHT22;10400;53.198;6.592;2022-08-25T04:47:27;19.30;99.90
20483;DHT22;10400;53.198;6.592;2022-08-25T04:49:53;19.30;99.90
20483;DHT22;10400;53.198;6.592;2022-08-25T04:52:18;19.40;99.90
20483;DHT22;10400;53.198;6.592;2022-08-25T04:54:45;19.30;99.90
20483;DHT22;10400;53.198;6.592;2022-08-25T04:57:11;19.40;99.90
20483;DHT22;10400;53.198;6.592;2022-08-25T04:59:37;19.30;99.90
20483;DHT22;10400;53.198;6.592;2022-08-25T05:02:03;19.40;99.90
20483;DHT22;10400;53.198;6.592;2022-08-25T05:04:31;19.40;99.90
20483;DHT22;10400;53.198;6.592;2022-08-25T05:06:57;19.40;99.90
20483;DHT22;10400;53.198;6.592;2022-08-25T05:09:24;19.40;99.90
20483;DHT22;10400;53.198;6.592;2022-08-25T05:11:50;19.50;99.90
20483;DHT22;10400;53.198;6.592;2022-08-25T05:14:15;19.50;99.90
20483;DHT22;10400;53.198;6.592;2022-08-25T05:16:45;19.50;99.90
20483;DHT22;10400;53.198;6.592;2022-08-25T05:19:12;19.50;99.90
20483;DHT22;10400;53.198;6.592;2022-08-25T05:21:38;19.50;99.90
20483;DHT22;10400;53.198;6.592;2022-08-25T05:24:04;19.60;99.90
20483;DHT22;10400;53.198;6.592;2022-08-25T05:26:31;19.60;99.90
20483;DHT22;10400;53.198;6.592;2022-08-25T05:28:59;19.60;99.90
20483;DHT22;10400;53.198;6.592;2022-08-25T05:31:26;19.70;99.90
20483;DHT22;10400;53.198;6.592;2022-08-25T05:33:53;19.80;99.90
20483;DHT22;10400;53.198;6.592;2022-08-25T05:36:19;19.80;99.90
20483;DHT22;10400;53.198;6.592;2022-08-25T05:38:46;19.90;99.90
20483;DHT22;10400;53.198;6.592;2022-08-25T05:41:14;20.00;99.90
20483;DHT22;10400;53.198;6.592;2022-08-25T05:43:45;20.10;99.90
20483;DHT22;10400;53.198;6.592;2022-08-25T05:46:11;20.10;99.90
20483;DHT22;10400;53.198;6.592;2022-08-25T05:48:38;20.10;99.90
20483;DHT22;10400;53.198;6.592;2022-08-25T05:51:07;20.20;99.90
20483;DHT22;10400;53.198;6.592;2022-08-25T05:53:34;20.30;99.90
20483;DHT22;10400;53.198;6.592;2022-08-25T05:56:01;20.40;99.90
20483;DHT22;10400;53.198;6.592;2022-08-25T05:58:28;20.40;99.90
20483;DHT22;10400;53.198;6.592;2022-08-25T06:00:54;20.60;99.90
20483;DHT22;10400;53.198;6.592;2022-08-25T06:03:20;20.60;99.90
20483;DHT22;10400;53.198;6.592;2022-08-25T06:05:46;20.60;99.90
20483;DHT22;10400;53.198;6.592;2022-08-25T06:08:12;20.80;99.90
20483;DHT22;10400;53.198;6.592;2022-08-25T06:10:38;20.80;99.90
20483;DHT22;10400;53.198;6.592;2022-08-25T06:13:04;20.80;99.90
20483;DHT22;10400;53.198;6.592;2022-08-25T06:15:30;20.90;99.90
20483;DHT22;10400;53.198;6.592;2022-08-25T06:17:56;21.00;99.90
20483;DHT22;10400;53.198;6.592;2022-08-25T06:20:28;21.10;99.90
20483;DHT22;10400;53.198;6.592;2022-08-25T06:22:55;21.10;99.90
20483;DHT22;10400;53.198;6.592;2022-08-25T06:25:23;21.20;99.90
20483;DHT22;10400;53.198;6.592;2022-08-25T06:27:49;21.30;99.90
20483;DHT22;10400;53.198;6.592;2022-08-25T06:30:19;21.40;99.90
20483;DHT22;10400;53.198;6.592;2022-08-25T06:32:46;21.50;99.90
20483;DHT22;10400;53.198;6.592;2022-08-25T06:35:16;21.60;99.90
20483;DHT22;10400;53.198;6.592;2022-08-25T06:37:43;21.70;99.90
20483;DHT22;10400;53.198;6.592;2022-08-25T06:40:10;21.70;99.90
20483;DHT22;10400;53.198;6.592;2022-08-25T06:42:36;21.80;99.90
20483;DHT22;10400;53.198;6.592;2022-08-25T06:45:03;21.90;99.90
20483;DHT22;10400;53.198;6.592;2022-08-25T06:47:29;21.90;99.90
20483;DHT22;10400;53.198;6.592;2022-08-25T06:49:54;22.00;99.90
20483;DHT22;10400;53.198;6.592;2022-08-25T06:52:20;22.00;99.90
20483;DHT22;10400;53.198;6.592;2022-08-25T06:54:45;22.20;99.90
20483;DHT22;10400;53.198;6.592;2022-08-25T06:57:12;22.30;99.90
20483;DHT22;10400;53.198;6.592;2022-08-25T06:59:38;22.30;99.90
20483;DHT22;10400;53.198;6.592;2022-08-25T07:02:04;22.40;99.90
20483;DHT22;10400;53.198;6.592;2022-08-25T07:04:32;22.50;99.90
20483;DHT22;10400;53.198;6.592;2022-08-25T07:06:58;22.60;99.90
20483;DHT22;10400;53.198;6.592;2022-08-25T07:09:24;22.60;99.90
20483;DHT22;10400;53.198;6.592;2022-08-25T07:11:50;22.70;99.90
20483;DHT22;10400;53.198;6.592;2022-08-25T07:14:17;22.80;99.90
20483;DHT22;10400;53.198;6.592;2022-08-25T07:16:43;22.80;99.90
20483;DHT22;10400;53.198;6.592;2022-08-25T07:19:09;22.90;99.90
20483;DHT22;10400;53.198;6.592;2022-08-25T07:21:37;22.90;99.90
20483;DHT22;10400;53.198;6.592;2022-08-25T07:24:11;23.00;99.90
20483;DHT22;10400;53.198;6.592;2022-08-25T07:26:38;22.90;99.90
20483;DHT22;10400;53.198;6.592;2022-08-25T07:29:16;23.00;99.90
20483;DHT22;10400;53.198;6.592;2022-08-25T07:31:42;23.10;99.90
20483;DHT22;10400;53.198;6.592;2022-08-25T07:34:08;23.20;99.90
20483;DHT22;10400;53.198;6.592;2022-08-25T07:36:53;23.30;99.90
20483;DHT22;10400;53.198;6.592;2022-08-25T07:39:19;23.50;99.90
20483;DHT22;10400;53.198;6.592;2022-08-25T07:41:45;23.60;99.90
20483;DHT22;10400;53.198;6.592;2022-08-25T07:44:12;23.60;99.90
20483;DHT22;10400;53.198;6.592;2022-08-25T07:46:38;23.70;99.90
20483;DHT22;10400;53.198;6.592;2022-08-25T07:49:04;23.80;99.90
20483;DHT22;10400;53.198;6.592;2022-08-25T07:51:30;23.90;99.90
20483;DHT22;10400;53.198;6.592;2022-08-25T07:53:55;24.00;99.90
20483;DHT22;10400;53.198;6.592;2022-08-25T07:56:21;24.10;99.90
20483;DHT22;10400;53.198;6.592;2022-08-25T07:58:47;24.20;99.90
20483;DHT22;10400;53.198;6.592;2022-08-25T08:01:15;24.30;99.90
20483;DHT22;10400;53.198;6.592;2022-08-25T08:03:41;24.50;99.90
20483;DHT22;10400;53.198;6.592;2022-08-25T08:06:08;24.60;99.90
20483;DHT22;10400;53.198;6.592;2022-08-25T08:08:38;24.70;99.90
20483;DHT22;10400;53.198;6.592;2022-08-25T08:11:17;24.80;99.90
20483;DHT22;10400;53.198;6.592;2022-08-25T08:13:44;25.00;99.90
20483;DHT22;10400;53.198;6.592;2022-08-25T08:16:11;25.00;99.90
20483;DHT22;10400;53.198;6.592;2022-08-25T08:18:37;25.10;99.90
20483;DHT22;10400;53.198;6.592;2022-08-25T08:21:03;25.20;99.90
20483;DHT22;10400;53.198;6.592;2022-08-25T08:23:28;25.30;99.90
20483;DHT22;10400;53.198;6.592;2022-08-25T08:25:55;25.50;99.90
20483;DHT22;10400;53.198;6.592;2022-08-25T08:28:21;25.60;99.90
20483;DHT22;10400;53.198;6.592;2022-08-25T08:30:47;25.70;99.90
20483;DHT22;10400;53.198;6.592;2022-08-25T08:33:13;25.80;99.90
20483;DHT22;10400;53.198;6.592;2022-08-25T08:35:39;25.90;99.90
20483;DHT22;10400;53.198;6.592;2022-08-25T08:38:05;26.00;99.90
20483;DHT22;10400;53.198;6.592;2022-08-25T08:40:34;26.10;99.90
20483;DHT22;10400;53.198;6.592;2022-08-25T08:43:10;26.10;99.90
20483;DHT22;10400;53.198;6.592;2022-08-25T08:45:51;26.10;99.90
20483;DHT22;10400;53.198;6.592;2022-08-25T08:51:11;26.20;99.90
20483;DHT22;10400;53.198;6.592;2022-08-25T08:53:51;26.20;99.90
20483;DHT22;10400;53.198;6.592;2022-08-25T08:56:25;26.30;99.90
20483;DHT22;10400;53.198;6.592;2022-08-25T08:58:58;26.50;99.90
20483;DHT22;10400;53.198;6.592;2022-08-25T09:01:30;26.60;99.90
20483;DHT22;10400;53.198;6.592;2022-08-25T09:04:19;26.70;99.90
20483;DHT22;10400;53.198;6.592;2022-08-25T09:06:48;26.80;99.90
20483;DHT22;10400;53.198;6.592;2022-08-25T09:09:33;26.90;99.90
20483;DHT22;10400;53.198;6.592;2022-08-25T09:12:12;26.90;99.90
20483;DHT22;10400;53.198;6.592;2022-08-25T09:20:17;27.20;99.90
20483;DHT22;10400;53.198;6.592;2022-08-25T09:28:31;27.40;99.90
20483;DHT22;10400;53.198;6.592;2022-08-25T09:33:59;27.50;99.90
20483;DHT22;10400;53.198;6.592;2022-08-25T09:36:25;27.50;99.90
20483;DHT22;10400;53.198;6.592;2022-08-25T09:38:51;27.70;99.90
20483;DHT22;10400;53.198;6.592;2022-08-25T09:41:33;27.80;99.90
20483;DHT22;10400;53.198;6.592;2022-08-25T09:43:59;27.90;99.90
20483;DHT22;10400;53.198;6.592;2022-08-25T09:46:27;27.90;99.90
20483;DHT22;10400;53.198;6.592;2022-08-25T09:49:09;28.00;99.90
20483;DHT22;10400;53.198;6.592;2022-08-25T09:51:37;28.10;99.90
20483;DHT22;10400;53.198;6.592;2022-08-25T09:57:08;28.30;99.90
20483;DHT22;10400;53.198;6.592;2022-08-25T09:59:52;28.40;99.90
20483;DHT22;10400;53.198;6.592;2022-08-25T10:02:25;28.50;99.90
20483;DHT22;10400;53.198;6.592;2022-08-25T10:04:53;28.50;99.90
20483;DHT22;10400;53.198;6.592;2022-08-25T10:07:26;28.60;99.90
20483;DHT22;10400;53.198;6.592;2022-08-25T10:09:56;28.60;99.90
20483;DHT22;10400;53.198;6.592;2022-08-25T10:12:35;28.70;99.90
20483;DHT22;10400;53.198;6.592;2022-08-25T10:15:24;28.90;99.90
20483;DHT22;10400;53.198;6.592;2022-08-25T10:17:50;28.90;99.90
20483;DHT22;10400;53.198;6.592;2022-08-25T10:20:19;28.90;99.90
20483;DHT22;10400;53.198;6.592;2022-08-25T10:22:47;28.70;99.90
20483;DHT22;10400;53.198;6.592;2022-08-25T10:25:23;28.80;99.90
20483;DHT22;10400;53.198;6.592;2022-08-25T10:33:42;29.00;99.90
20483;DHT22;10400;53.198;6.592;2022-08-25T10:39:11;29.20;99.90
20483;DHT22;10400;53.198;6.592;2022-08-25T10:42:05;29.30;99.90
20483;DHT22;10400;53.198;6.592;2022-08-25T10:45:02;29.40;99.90
20483;DHT22;10400;53.198;6.592;2022-08-25T10:50:42;29.30;99.90
20483;DHT22;10400;53.198;6.592;2022-08-25T10:53:21;29.40;99.90
20483;DHT22;10400;53.198;6.592;2022-08-25T11:04:09;29.70;99.90
20483;DHT22;10400;53.198;6.592;2022-08-25T11:06:45;29.80;99.90
20483;DHT22;10400;53.198;6.592;2022-08-25T11:09:17;29.70;99.90
20483;DHT22;10400;53.198;6.592;2022-08-25T11:11:51;29.80;99.90
20483;DHT22;10400;53.198;6.592;2022-08-25T11:14:32;29.90;99.90
20483;DHT22;10400;53.198;6.592;2022-08-25T11:17:26;30.00;99.90
20483;DHT22;10400;53.198;6.592;2022-08-25T11:20:03;30.10;99.90
20483;DHT22;10400;53.198;6.592;2022-08-25T11:25:17;30.10;99.90
20483;DHT22;10400;53.198;6.592;2022-08-25T11:28:13;30.10;99.90
20483;DHT22;10400;53.198;6.592;2022-08-25T11:30:41;30.20;99.90
20483;DHT22;10400;53.198;6.592;2022-08-25T11:33:12;30.30;99.90
20483;DHT22;10400;53.198;6.592;2022-08-25T11:35:47;30.30;99.90
20483;DHT22;10400;53.198;6.592;2022-08-25T11:38:22;30.40;99.90
20483;DHT22;10400;53.198;6.592;2022-08-25T11:43:45;30.30;99.90
20483;DHT22;10400;53.198;6.592;2022-08-25T11:51:39;30.50;99.90
20483;DHT22;10400;53.198;6.592;2022-08-25T11:54:22;30.60;99.90
20483;DHT22;10400;53.198;6.592;2022-08-25T11:57:07;30.70;99.90
20483;DHT22;10400;53.198;6.592;2022-08-25T12:05:07;30.90;99.90
20483;DHT22;10400;53.198;6.592;2022-08-25T12:16:31;31.10;99.90
20483;DHT22;10400;53.198;6.592;2022-08-25T12:32:29;31.60;99.90
20483;DHT22;10400;53.198;6.592;2022-08-25T12:35:23;31.50;99.90
20483;DHT22;10400;53.198;6.592;2022-08-25T12:40:28;31.50;99.90
20483;DHT22;10400;53.198;6.592;2022-08-25T12:45:48;31.50;99.90
20483;DHT22;10400;53.198;6.592;2022-08-25T12:51:14;31.60;99.90
20483;DHT22;10400;53.198;6.592;2022-08-25T12:53:42;31.80;99.90
20483;DHT22;10400;53.198;6.592;2022-08-25T12:56:44;31.70;99.90
20483;DHT22;10400;53.198;6.592;2022-08-25T12:59:17;31.70;99.90
20483;DHT22;10400;53.198;6.592;2022-08-25T13:14:57;31.80;99.90
20483;DHT22;10400;53.198;6.592;2022-08-25T13:17:33;31.80;99.90
20483;DHT22;10400;53.198;6.592;2022-08-25T13:20:24;31.80;99.90
20483;DHT22;10400;53.198;6.592;2022-08-25T13:22:56;31.90;99.90
20483;DHT22;10400;53.198;6.592;2022-08-25T13:25:28;31.80;99.90
20483;DHT22;10400;53.198;6.592;2022-08-25T13:27:57;31.70;99.90
20483;DHT22;10400;53.198;6.592;2022-08-25T13:30:29;31.80;99.90
20483;DHT22;10400;53.198;6.592;2022-08-25T13:32:55;31.80;99.90
20483;DHT22;10400;53.198;6.592;2022-08-25T13:35:28;31.90;99.90
20483;DHT22;10400;53.198;6.592;2022-08-25T13:38:17;31.80;99.90
20483;DHT22;10400;53.198;6.592;2022-08-25T13:40:43;31.80;99.90
20483;DHT22;10400;53.198;6.592;2022-08-25T13:43:12;31.90;99.90
20483;DHT22;10400;53.198;6.592;2022-08-25T13:45:41;32.10;99.90
20483;DHT22;10400;53.198;6.592;2022-08-25T13:48:12;32.10;99.90
20483;DHT22;10400;53.198;6.592;2022-08-25T13:50:42;32.10;99.90
20483;DHT22;10400;53.198;6.592;2022-08-25T13:53:20;32.20;99.90
20483;DHT22;10400;53.198;6.592;2022-08-25T13:55:56;32.30;99.90
20483;DHT22;10400;53.198;6.592;2022-08-25T13:58:29;32.10;99.90
20483;DHT22;10400;53.198;6.592;2022-08-25T14:03:50;31.90;99.90
20483;DHT22;10400;53.198;6.592;2022-08-25T14:09:01;32.10;99.90
20483;DHT22;10400;53.198;6.592;2022-08-25T14:11:40;32.20;99.90
20483;DHT22;10400;53.198;6.592;2022-08-25T14:14:09;32.10;99.90
20483;DHT22;10400;53.198;6.592;2022-08-25T14:16:50;32.20;99.90
20483;DHT22;10400;53.198;6.592;2022-08-25T14:19:18;31.90;99.90
20483;DHT22;10400;53.198;6.592;2022-08-25T14:21:46;32.10;99.90
20483;DHT22;10400;53.198;6.592;2022-08-25T14:24:16;32.00;99.90
20483;DHT22;10400;53.198;6.592;2022-08-25T14:26:43;32.00;99.90
20483;DHT22;10400;53.198;6.592;2022-08-25T14:29:09;31.90;99.90
20483;DHT22;10400;53.198;6.592;2022-08-25T14:31:36;32.00;99.90
20483;DHT22;10400;53.198;6.592;2022-08-25T14:34:08;32.10;99.90
20483;DHT22;10400;53.198;6.592;2022-08-25T14:36:35;32.10;99.90
20483;DHT22;10400;53.198;6.592;2022-08-25T14:39:02;32.10;99.90
20483;DHT22;10400;53.198;6.592;2022-08-25T14:41:32;32.20;99.90
20483;DHT22;10400;53.198;6.592;2022-08-25T14:43:59;32.10;99.90
20483;DHT22;10400;53.198;6.592;2022-08-25T14:46:27;31.90;99.90
20483;DHT22;10400;53.198;6.592;2022-08-25T14:48:58;31.90;99.90
20483;DHT22;10400;53.198;6.592;2022-08-25T14:51:25;32.10;99.90
20483;DHT22;10400;53.198;6.592;2022-08-25T14:53:56;32.10;99.90
20483;DHT22;10400;53.198;6.592;2022-08-25T14:56:23;32.10;99.90
20483;DHT22;10400;53.198;6.592;2022-08-25T14:58:49;32.10;99.90
20483;DHT22;10400;53.198;6.592;2022-08-25T15:01:16;32.00;99.90
20483;DHT22;10400;53.198;6.592;2022-08-25T15:03:45;32.00;99.90
20483;DHT22;10400;53.198;6.592;2022-08-25T15:06:14;32.00;99.90
20483;DHT22;10400;53.198;6.592;2022-08-25T15:08:40;32.00;99.90
20483;DHT22;10400;53.198;6.592;2022-08-25T15:11:25;32.10;99.90
20483;DHT22;10400;53.198;6.592;2022-08-25T15:13:51;32.10;99.90
20483;DHT22;10400;53.198;6.592;2022-08-25T15:16:23;32.20;99.90
20483;DHT22;10400;53.198;6.592;2022-08-25T15:18:50;32.20;99.90
20483;DHT22;10400;53.198;6.592;2022-08-25T15:21:16;32.20;99.90
20483;DHT22;10400;53.198;6.592;2022-08-25T15:23:41;32.10;99.90
20483;DHT22;10400;53.198;6.592;2022-08-25T15:26:10;32.20;99.90
20483;DHT22;10400;53.198;6.592;2022-08-25T15:28:42;32.10;99.90
20483;DHT22;10400;53.198;6.592;2022-08-25T15:31:12;32.00;99.90
20483;DHT22;10400;53.198;6.592;2022-08-25T15:33:38;31.90;99.90
20483;DHT22;10400;53.198;6.592;2022-08-25T15:36:09;31.80;99.90
20483;DHT22;10400;53.198;6.592;2022-08-25T15:38:38;31.90;99.90
20483;DHT22;10400;53.198;6.592;2022-08-25T15:41:06;31.80;99.90
20483;DHT22;10400;53.198;6.592;2022-08-25T15:43:33;31.80;99.90
20483;DHT22;10400;53.198;6.592;2022-08-25T15:45:59;31.80;99.90
20483;DHT22;10400;53.198;6.592;2022-08-25T15:48:25;31.90;99.90
20483;DHT22;10400;53.198;6.592;2022-08-25T15:50:53;31.90;99.90
20483;DHT22;10400;53.198;6.592;2022-08-25T15:53:26;31.90;99.90
20483;DHT22;10400;53.198;6.592;2022-08-25T15:55:52;32.00;99.90
20483;DHT22;10400;53.198;6.592;2022-08-25T15:58:18;32.10;99.90
20483;DHT22;10400;53.198;6.592;2022-08-25T16:00:45;32.00;99.90
20483;DHT22;10400;53.198;6.592;2022-08-25T16:03:11;31.90;99.90
20483;DHT22;10400;53.198;6.592;2022-08-25T16:05:39;31.90;99.90
20483;DHT22;10400;53.198;6.592;2022-08-25T16:08:06;31.90;99.90
20483;DHT22;10400;53.198;6.592;2022-08-25T16:10:42;31.90;99.90
20483;DHT22;10400;53.198;6.592;2022-08-25T16:13:09;31.90;99.90
20483;DHT22;10400;53.198;6.592;2022-08-25T16:15:36;32.00;99.90
20483;DHT22;10400;53.198;6.592;2022-08-25T16:18:03;32.10;99.90
20483;DHT22;10400;53.198;6.592;2022-08-25T16:20:30;32.10;99.90
20483;DHT22;10400;53.198;6.592;2022-08-25T16:22:56;32.00;99.90
20483;DHT22;10400;53.198;6.592;2022-08-25T16:25:24;32.00;99.90
20483;DHT22;10400;53.198;6.592;2022-08-25T16:27:50;32.00;99.90
20483;DHT22;10400;53.198;6.592;2022-08-25T16:30:17;32.00;99.90
20483;DHT22;10400;53.198;6.592;2022-08-25T16:32:42;32.00;99.90
20483;DHT22;10400;53.198;6.592;2022-08-25T16:35:08;32.00;99.90
20483;DHT22;10400;53.198;6.592;2022-08-25T16:37:35;32.10;99.90
20483;DHT22;10400;53.198;6.592;2022-08-25T16:40:02;32.40;99.90
20483;DHT22;10400;53.198;6.592;2022-08-25T16:42:28;32.60;99.90
20483;DHT22;10400;53.198;6.592;2022-08-25T16:44:54;32.80;99.90
20483;DHT22;10400;53.198;6.592;2022-08-25T16:47:20;33.00;99.90
20483;DHT22;10400;53.198;6.592;2022-08-25T16:49:46;33.30;99.90
20483;DHT22;10400;53.198;6.592;2022-08-25T16:52:13;33.50;99.90
20483;DHT22;10400;53.198;6.592;2022-08-25T16:54:57;33.70;99.90
20483;DHT22;10400;53.198;6.592;2022-08-25T16:57:42;33.70;99.90
20483;DHT22;10400;53.198;6.592;2022-08-25T17:00:10;34.00;99.90
20483;DHT22;10400;53.198;6.592;2022-08-25T17:02:38;34.10;99.90
20483;DHT22;10400;53.198;6.592;2022-08-25T17:05:05;34.20;99.90
20483;DHT22;10400;53.198;6.592;2022-08-25T17:07:32;34.30;99.90
20483;DHT22;10400;53.198;6.592;2022-08-25T17:09:58;34.10;99.90
20483;DHT22;10400;53.198;6.592;2022-08-25T17:12:24;34.20;99.90
20483;DHT22;10400;53.198;6.592;2022-08-25T17:14:51;34.20;99.90
20483;DHT22;10400;53.198;6.592;2022-08-25T17:17:17;34.10;99.90
20483;DHT22;10400;53.198;6.592;2022-08-25T17:19:42;34.20;99.90
20483;DHT22;10400;53.198;6.592;2022-08-25T17:22:09;33.90;99.90
20483;DHT22;10400;53.198;6.592;2022-08-25T17:24:39;33.70;99.90
20483;DHT22;10400;53.198;6.592;2022-08-25T17:27:04;33.50;99.90
20483;DHT22;10400;53.198;6.592;2022-08-25T17:29:31;33.00;99.90
20483;DHT22;10400;53.198;6.592;2022-08-25T17:31:57;32.70;99.90
20483;DHT22;10400;53.198;6.592;2022-08-25T17:34:23;32.20;99.90
20483;DHT22;10400;53.198;6.592;2022-08-25T17:36:50;31.70;99.90
20483;DHT22;10400;53.198;6.592;2022-08-25T17:39:15;31.40;99.90